sensor_id;sensor_type;location;lat;lon;timestamp;P1;durP1;ratioP1;P2;durP2;ratioP2
70228;SDS011;57617;51.988;5.854;2022-09-09T00:01:42;6.95;;;4.40;;
70228;SDS011;57617;51.988;5.854;2022-09-09T00:07:07;11.05;;;4.32;;
70228;SDS011;57617;51.988;5.854;2022-09-09T00:09:45;8.00;;;4.68;;
70228;SDS011;57617;51.988;5.854;2022-09-09T00:15:13;7.60;;;4.97;;
70228;SDS011;57617;51.988;5.854;2022-09-09T00:18:02;9.50;;;5.05;;
70228;SDS011;57617;51.988;5.854;2022-09-09T00:20:39;7.82;;;4.70;;
70228;SDS011;57617;51.988;5.854;2022-09-09T00:23:12;9.48;;;5.00;;
70228;SDS011;57617;51.988;5.854;2022-09-09T00:26:02;8.38;;;5.10;;
70228;SDS011;57617;51.988;5.854;2022-09-09T00:28:36;8.15;;;4.82;;
70228;SDS011;57617;51.988;5.854;2022-09-09T00:31:13;8.00;;;4.90;;
70228;SDS011;57617;51.988;5.854;2022-09-09T00:33:43;8.63;;;5.80;;
70228;SDS011;57617;51.988;5.854;2022-09-09T00:36:12;9.27;;;5.05;;
70228;SDS011;57617;51.988;5.854;2022-09-09T00:38:42;7.53;;;5.40;;
70228;SDS011;57617;51.988;5.854;2022-09-09T00:43:57;6.50;;;5.00;;
70228;SDS011;57617;51.988;5.854;2022-09-09T00:46:41;7.97;;;4.70;;
70228;SDS011;57617;51.988;5.854;2022-09-09T00:52:25;8.55;;;4.93;;
70228;SDS011;57617;51.988;5.854;2022-09-09T00:55:16;8.23;;;4.20;;
70228;SDS011;57617;51.988;5.854;2022-09-09T00:57:51;8.65;;;5.00;;
70228;SDS011;57617;51.988;5.854;2022-09-09T01:07:57;8.87;;;4.00;;
70228;SDS011;57617;51.988;5.854;2022-09-09T01:13:26;5.82;;;3.92;;
70228;SDS011;57617;51.988;5.854;2022-09-09T01:15:55;7.00;;;4.05;;
70228;SDS011;57617;51.988;5.854;2022-09-09T01:18:25;7.60;;;4.15;;
70228;SDS011;57617;51.988;5.854;2022-09-09T01:26:34;6.65;;;4.03;;
70228;SDS011;57617;51.988;5.854;2022-09-09T01:29:02;9.57;;;3.60;;
70228;SDS011;57617;51.988;5.854;2022-09-09T01:31:37;8.45;;;3.55;;
70228;SDS011;57617;51.988;5.854;2022-09-09T01:34:09;5.45;;;3.20;;
70228;SDS011;57617;51.988;5.854;2022-09-09T01:36:42;5.88;;;3.05;;
70228;SDS011;57617;51.988;5.854;2022-09-09T01:39:12;4.18;;;2.80;;
70228;SDS011;57617;51.988;5.854;2022-09-09T01:41:38;8.77;;;3.22;;
70228;SDS011;57617;51.988;5.854;2022-09-09T01:44:03;6.30;;;3.15;;
70228;SDS011;57617;51.988;5.854;2022-09-09T01:46:30;6.93;;;3.30;;
70228;SDS011;57617;51.988;5.854;2022-09-09T01:48:56;5.22;;;3.10;;
70228;SDS011;57617;51.988;5.854;2022-09-09T01:51:23;5.93;;;3.05;;
70228;SDS011;57617;51.988;5.854;2022-09-09T01:53:49;6.80;;;3.05;;
70228;SDS011;57617;51.988;5.854;2022-09-09T02:04:17;7.88;;;3.10;;
70228;SDS011;57617;51.988;5.854;2022-09-09T02:06:52;6.20;;;3.03;;
70228;SDS011;57617;51.988;5.854;2022-09-09T02:09:22;7.15;;;3.08;;
70228;SDS011;57617;51.988;5.854;2022-09-09T02:11:50;7.43;;;3.40;;
70228;SDS011;57617;51.988;5.854;2022-09-09T02:14:25;7.43;;;3.10;;
70228;SDS011;57617;51.988;5.854;2022-09-09T02:16:55;7.13;;;3.05;;
70228;SDS011;57617;51.988;5.854;2022-09-09T02:19:27;7.28;;;3.20;;
70228;SDS011;57617;51.988;5.854;2022-09-09T02:21:57;5.75;;;3.50;;
70228;SDS011;57617;51.988;5.854;2022-09-09T02:24:26;6.93;;;3.30;;
70228;SDS011;57617;51.988;5.854;2022-09-09T02:26:54;5.57;;;3.38;;
70228;SDS011;57617;51.988;5.854;2022-09-09T02:29:26;4.53;;;3.38;;
70228;SDS011;57617;51.988;5.854;2022-09-09T02:31:57;5.60;;;3.10;;
70228;SDS011;57617;51.988;5.854;2022-09-09T02:34:28;13.50;;;3.72;;
70228;SDS011;57617;51.988;5.854;2022-09-09T02:36:55;9.18;;;3.38;;
70228;SDS011;57617;51.988;5.854;2022-09-09T02:39:24;5.97;;;3.38;;
70228;SDS011;57617;51.988;5.854;2022-09-09T02:41:50;6.28;;;3.60;;
70228;SDS011;57617;51.988;5.854;2022-09-09T02:44:16;7.43;;;3.30;;
70228;SDS011;57617;51.988;5.854;2022-09-09T02:47:04;5.82;;;3.65;;
70228;SDS011;57617;51.988;5.854;2022-09-09T02:55:13;6.82;;;3.75;;
70228;SDS011;57617;51.988;5.854;2022-09-09T02:57:43;6.95;;;3.50;;
70228;SDS011;57617;51.988;5.854;2022-09-09T03:00:12;6.85;;;3.78;;
70228;SDS011;57617;51.988;5.854;2022-09-09T03:02:38;8.50;;;3.85;;
70228;SDS011;57617;51.988;5.854;2022-09-09T03:05:04;5.95;;;3.58;;
70228;SDS011;57617;51.988;5.854;2022-09-09T03:07:30;6.18;;;3.67;;
70228;SDS011;57617;51.988;5.854;2022-09-09T03:09:55;11.25;;;4.03;;
70228;SDS011;57617;51.988;5.854;2022-09-09T03:12:20;6.18;;;3.95;;
70228;SDS011;57617;51.988;5.854;2022-09-09T03:14:46;8.77;;;4.15;;
70228;SDS011;57617;51.988;5.854;2022-09-09T03:17:11;6.43;;;4.10;;
70228;SDS011;57617;51.988;5.854;2022-09-09T03:19:37;7.10;;;3.85;;
70228;SDS011;57617;51.988;5.854;2022-09-09T03:22:02;10.60;;;4.40;;
70228;SDS011;57617;51.988;5.854;2022-09-09T03:24:29;7.93;;;4.22;;
70228;SDS011;57617;51.988;5.854;2022-09-09T03:26:55;8.63;;;4.20;;
70228;SDS011;57617;51.988;5.854;2022-09-09T03:29:20;12.38;;;4.32;;
70228;SDS011;57617;51.988;5.854;2022-09-09T03:31:46;8.25;;;4.35;;
70228;SDS011;57617;51.988;5.854;2022-09-09T03:34:11;6.18;;;4.22;;
70228;SDS011;57617;51.988;5.854;2022-09-09T03:36:38;8.25;;;4.30;;
70228;SDS011;57617;51.988;5.854;2022-09-09T03:39:03;8.25;;;4.05;;
70228;SDS011;57617;51.988;5.854;2022-09-09T03:41:29;9.65;;;4.20;;
70228;SDS011;57617;51.988;5.854;2022-09-09T03:43:55;7.78;;;4.10;;
70228;SDS011;57617;51.988;5.854;2022-09-09T03:46:21;7.18;;;3.97;;
70228;SDS011;57617;51.988;5.854;2022-09-09T03:48:48;7.15;;;4.03;;
70228;SDS011;57617;51.988;5.854;2022-09-09T03:51:14;8.43;;;4.22;;
70228;SDS011;57617;51.988;5.854;2022-09-09T03:53:40;7.63;;;4.40;;
70228;SDS011;57617;51.988;5.854;2022-09-09T03:56:06;8.50;;;4.50;;
70228;SDS011;57617;51.988;5.854;2022-09-09T03:58:35;8.23;;;4.28;;
70228;SDS011;57617;51.988;5.854;2022-09-09T04:01:02;9.90;;;4.90;;
70228;SDS011;57617;51.988;5.854;2022-09-09T04:03:30;12.77;;;4.47;;
70228;SDS011;57617;51.988;5.854;2022-09-09T04:05:56;8.85;;;4.70;;
70228;SDS011;57617;51.988;5.854;2022-09-09T04:08:23;7.75;;;4.25;;
70228;SDS011;57617;51.988;5.854;2022-09-09T04:10:51;9.73;;;4.68;;
70228;SDS011;57617;51.988;5.854;2022-09-09T04:13:18;12.18;;;4.72;;
70228;SDS011;57617;51.988;5.854;2022-09-09T04:15:48;9.07;;;4.60;;
70228;SDS011;57617;51.988;5.854;2022-09-09T04:18:19;9.93;;;4.80;;
70228;SDS011;57617;51.988;5.854;2022-09-09T04:20:48;8.60;;;4.72;;
70228;SDS011;57617;51.988;5.854;2022-09-09T04:23:17;13.20;;;4.80;;
70228;SDS011;57617;51.988;5.854;2022-09-09T04:25:49;15.13;;;4.90;;
70228;SDS011;57617;51.988;5.854;2022-09-09T04:28:20;8.57;;;4.80;;
70228;SDS011;57617;51.988;5.854;2022-09-09T04:30:47;10.82;;;5.07;;
70228;SDS011;57617;51.988;5.854;2022-09-09T04:33:12;12.40;;;4.97;;
70228;SDS011;57617;51.988;5.854;2022-09-09T04:35:39;12.57;;;4.60;;
70228;SDS011;57617;51.988;5.854;2022-09-09T04:38:09;10.10;;;4.80;;
70228;SDS011;57617;51.988;5.854;2022-09-09T04:40:34;13.15;;;4.78;;
70228;SDS011;57617;51.988;5.854;2022-09-09T04:43:01;7.55;;;4.90;;
70228;SDS011;57617;51.988;5.854;2022-09-09T04:45:29;9.18;;;4.95;;
70228;SDS011;57617;51.988;5.854;2022-09-09T04:47:55;15.82;;;5.05;;
70228;SDS011;57617;51.988;5.854;2022-09-09T04:50:20;10.82;;;5.00;;
70228;SDS011;57617;51.988;5.854;2022-09-09T04:52:45;9.20;;;5.05;;
70228;SDS011;57617;51.988;5.854;2022-09-09T04:55:11;8.63;;;4.57;;
70228;SDS011;57617;51.988;5.854;2022-09-09T04:57:37;8.98;;;4.38;;
70228;SDS011;57617;51.988;5.854;2022-09-09T05:00:03;9.52;;;4.25;;
70228;SDS011;57617;51.988;5.854;2022-09-09T05:02:29;9.25;;;4.38;;
70228;SDS011;57617;51.988;5.854;2022-09-09T05:04:55;12.95;;;4.65;;
70228;SDS011;57617;51.988;5.854;2022-09-09T05:07:21;14.35;;;4.60;;
70228;SDS011;57617;51.988;5.854;2022-09-09T05:09:46;11.70;;;4.95;;
70228;SDS011;57617;51.988;5.854;2022-09-09T05:12:13;8.07;;;4.45;;
70228;SDS011;57617;51.988;5.854;2022-09-09T05:14:38;10.23;;;4.00;;
70228;SDS011;57617;51.988;5.854;2022-09-09T05:17:03;11.85;;;4.25;;
70228;SDS011;57617;51.988;5.854;2022-09-09T05:19:29;11.25;;;4.20;;
70228;SDS011;57617;51.988;5.854;2022-09-09T05:21:56;12.90;;;4.00;;
70228;SDS011;57617;51.988;5.854;2022-09-09T05:24:21;12.02;;;4.22;;
70228;SDS011;57617;51.988;5.854;2022-09-09T05:26:48;8.75;;;3.88;;
70228;SDS011;57617;51.988;5.854;2022-09-09T05:29:13;9.13;;;4.22;;
70228;SDS011;57617;51.988;5.854;2022-09-09T05:31:39;7.50;;;4.28;;
70228;SDS011;57617;51.988;5.854;2022-09-09T05:34:04;14.50;;;4.18;;
70228;SDS011;57617;51.988;5.854;2022-09-09T05:36:29;10.77;;;4.10;;
70228;SDS011;57617;51.988;5.854;2022-09-09T05:38:55;12.90;;;4.40;;
70228;SDS011;57617;51.988;5.854;2022-09-09T05:41:20;14.40;;;4.43;;
70228;SDS011;57617;51.988;5.854;2022-09-09T05:43:47;10.77;;;3.85;;
70228;SDS011;57617;51.988;5.854;2022-09-09T05:46:14;16.92;;;4.30;;
70228;SDS011;57617;51.988;5.854;2022-09-09T05:48:45;11.18;;;3.80;;
70228;SDS011;57617;51.988;5.854;2022-09-09T05:51:13;7.13;;;3.80;;
70228;SDS011;57617;51.988;5.854;2022-09-09T05:53:43;9.38;;;4.30;;
70228;SDS011;57617;51.988;5.854;2022-09-09T05:56:10;12.35;;;4.07;;
70228;SDS011;57617;51.988;5.854;2022-09-09T05:58:39;11.50;;;4.30;;
70228;SDS011;57617;51.988;5.854;2022-09-09T06:03:34;9.77;;;4.20;;
70228;SDS011;57617;51.988;5.854;2022-09-09T06:06:01;11.60;;;4.15;;
70228;SDS011;57617;51.988;5.854;2022-09-09T06:08:30;10.45;;;4.18;;
70228;SDS011;57617;51.988;5.854;2022-09-09T06:11:00;10.88;;;4.03;;
70228;SDS011;57617;51.988;5.854;2022-09-09T06:13:27;12.88;;;3.85;;
70228;SDS011;57617;51.988;5.854;2022-09-09T06:15:53;10.68;;;4.28;;
70228;SDS011;57617;51.988;5.854;2022-09-09T06:18:18;12.80;;;4.18;;
70228;SDS011;57617;51.988;5.854;2022-09-09T06:20:57;10.90;;;4.45;;
70228;SDS011;57617;51.988;5.854;2022-09-09T06:23:24;14.98;;;4.55;;
70228;SDS011;57617;51.988;5.854;2022-09-09T06:25:50;11.82;;;4.22;;
70228;SDS011;57617;51.988;5.854;2022-09-09T06:28:15;11.98;;;4.18;;
70228;SDS011;57617;51.988;5.854;2022-09-09T06:30:42;11.40;;;4.20;;
70228;SDS011;57617;51.988;5.854;2022-09-09T06:33:07;14.32;;;4.18;;
70228;SDS011;57617;51.988;5.854;2022-09-09T06:35:34;9.07;;;4.13;;
70228;SDS011;57617;51.988;5.854;2022-09-09T06:37:59;19.13;;;4.82;;
70228;SDS011;57617;51.988;5.854;2022-09-09T06:40:24;10.57;;;4.13;;
70228;SDS011;57617;51.988;5.854;2022-09-09T06:42:50;15.45;;;4.03;;
70228;SDS011;57617;51.988;5.854;2022-09-09T06:45:15;17.50;;;4.32;;
70228;SDS011;57617;51.988;5.854;2022-09-09T06:47:40;7.82;;;3.90;;
70228;SDS011;57617;51.988;5.854;2022-09-09T06:50:07;10.27;;;4.30;;
70228;SDS011;57617;51.988;5.854;2022-09-09T06:52:32;10.27;;;3.95;;
70228;SDS011;57617;51.988;5.854;2022-09-09T06:54:58;12.07;;;3.97;;
70228;SDS011;57617;51.988;5.854;2022-09-09T06:57:23;8.15;;;4.05;;
70228;SDS011;57617;51.988;5.854;2022-09-09T06:59:49;11.13;;;3.80;;
70228;SDS011;57617;51.988;5.854;2022-09-09T07:02:14;14.05;;;4.38;;
70228;SDS011;57617;51.988;5.854;2022-09-09T07:04:39;13.73;;;3.42;;
70228;SDS011;57617;51.988;5.854;2022-09-09T07:07:05;12.35;;;4.25;;
70228;SDS011;57617;51.988;5.854;2022-09-09T07:09:30;9.10;;;3.70;;
70228;SDS011;57617;51.988;5.854;2022-09-09T07:11:56;13.32;;;3.88;;
70228;SDS011;57617;51.988;5.854;2022-09-09T07:14:24;12.23;;;3.33;;
70228;SDS011;57617;51.988;5.854;2022-09-09T07:16:49;24.60;;;4.10;;
70228;SDS011;57617;51.988;5.854;2022-09-09T07:19:14;11.95;;;3.65;;
70228;SDS011;57617;51.988;5.854;2022-09-09T07:21:40;14.65;;;3.60;;
70228;SDS011;57617;51.988;5.854;2022-09-09T07:24:05;13.05;;;3.90;;
70228;SDS011;57617;51.988;5.854;2022-09-09T07:26:34;9.45;;;3.85;;
70228;SDS011;57617;51.988;5.854;2022-09-09T07:29:00;12.77;;;3.75;;
70228;SDS011;57617;51.988;5.854;2022-09-09T07:31:27;10.43;;;4.10;;
70228;SDS011;57617;51.988;5.854;2022-09-09T07:33:57;12.75;;;4.07;;
70228;SDS011;57617;51.988;5.854;2022-09-09T07:36:37;18.27;;;4.00;;
70228;SDS011;57617;51.988;5.854;2022-09-09T07:39:08;13.02;;;3.85;;
70228;SDS011;57617;51.988;5.854;2022-09-09T07:41:39;12.48;;;3.97;;
70228;SDS011;57617;51.988;5.854;2022-09-09T07:44:07;11.27;;;4.28;;
70228;SDS011;57617;51.988;5.854;2022-09-09T07:46:35;15.80;;;3.60;;
70228;SDS011;57617;51.988;5.854;2022-09-09T07:49:02;18.17;;;4.20;;
70228;SDS011;57617;51.988;5.854;2022-09-09T07:51:29;12.98;;;3.90;;
70228;SDS011;57617;51.988;5.854;2022-09-09T07:53:59;10.07;;;3.90;;
70228;SDS011;57617;51.988;5.854;2022-09-09T07:56:27;9.30;;;3.50;;
70228;SDS011;57617;51.988;5.854;2022-09-09T07:58:53;13.25;;;4.22;;
70228;SDS011;57617;51.988;5.854;2022-09-09T08:01:21;17.65;;;4.30;;
70228;SDS011;57617;51.988;5.854;2022-09-09T08:03:55;13.15;;;3.80;;
70228;SDS011;57617;51.988;5.854;2022-09-09T08:06:26;14.05;;;4.10;;
70228;SDS011;57617;51.988;5.854;2022-09-09T08:08:53;9.85;;;3.90;;
70228;SDS011;57617;51.988;5.854;2022-09-09T08:11:20;11.80;;;3.70;;
70228;SDS011;57617;51.988;5.854;2022-09-09T08:13:46;16.60;;;3.85;;
70228;SDS011;57617;51.988;5.854;2022-09-09T08:16:13;12.20;;;3.90;;
70228;SDS011;57617;51.988;5.854;2022-09-09T08:18:40;12.18;;;3.53;;
70228;SDS011;57617;51.988;5.854;2022-09-09T08:21:10;9.30;;;3.55;;
70228;SDS011;57617;51.988;5.854;2022-09-09T08:23:38;11.00;;;3.60;;
70228;SDS011;57617;51.988;5.854;2022-09-09T08:26:10;12.95;;;3.67;;
70228;SDS011;57617;51.988;5.854;2022-09-09T08:28:37;11.75;;;3.58;;
70228;SDS011;57617;51.988;5.854;2022-09-09T08:31:06;10.73;;;3.40;;
70228;SDS011;57617;51.988;5.854;2022-09-09T08:33:32;9.55;;;3.30;;
70228;SDS011;57617;51.988;5.854;2022-09-09T08:35:58;12.50;;;3.75;;
70228;SDS011;57617;51.988;5.854;2022-09-09T08:38:23;16.65;;;3.60;;
70228;SDS011;57617;51.988;5.854;2022-09-09T08:40:49;11.20;;;3.25;;
70228;SDS011;57617;51.988;5.854;2022-09-09T08:43:24;10.93;;;3.40;;
70228;SDS011;57617;51.988;5.854;2022-09-09T08:51:11;8.85;;;3.00;;
70228;SDS011;57617;51.988;5.854;2022-09-09T08:53:42;12.25;;;2.85;;
70228;SDS011;57617;51.988;5.854;2022-09-09T08:56:12;9.82;;;2.92;;
70228;SDS011;57617;51.988;5.854;2022-09-09T08:59:00;10.00;;;3.00;;
70228;SDS011;57617;51.988;5.854;2022-09-09T09:01:35;8.07;;;2.95;;
70228;SDS011;57617;51.988;5.854;2022-09-09T09:07:08;11.65;;;2.40;;
70228;SDS011;57617;51.988;5.854;2022-09-09T09:10:21;9.70;;;2.38;;
70228;SDS011;57617;51.988;5.854;2022-09-09T09:12:45;11.98;;;2.60;;
70228;SDS011;57617;51.988;5.854;2022-09-09T09:15:25;8.88;;;2.50;;
70228;SDS011;57617;51.988;5.854;2022-09-09T09:17:53;10.15;;;2.22;;
70228;SDS011;57617;51.988;5.854;2022-09-09T09:20:21;10.85;;;2.60;;
70228;SDS011;57617;51.988;5.854;2022-09-09T09:23:00;8.85;;;2.33;;
70228;SDS011;57617;51.988;5.854;2022-09-09T09:25:32;6.50;;;2.20;;
70228;SDS011;57617;51.988;5.854;2022-09-09T09:28:10;12.68;;;2.58;;
70228;SDS011;57617;51.988;5.854;2022-09-09T09:30:53;11.35;;;2.40;;
70228;SDS011;57617;51.988;5.854;2022-09-09T09:33:27;10.45;;;2.28;;
70228;SDS011;57617;51.988;5.854;2022-09-09T09:36:00;5.18;;;2.15;;
70228;SDS011;57617;51.988;5.854;2022-09-09T09:38:26;7.88;;;2.38;;
70228;SDS011;57617;51.988;5.854;2022-09-09T09:40:56;7.63;;;2.40;;
70228;SDS011;57617;51.988;5.854;2022-09-09T09:43:33;8.23;;;2.20;;
70228;SDS011;57617;51.988;5.854;2022-09-09T09:45:59;11.07;;;2.42;;
70228;SDS011;57617;51.988;5.854;2022-09-09T09:48:25;7.97;;;2.42;;
70228;SDS011;57617;51.988;5.854;2022-09-09T09:53:50;10.05;;;2.70;;
70228;SDS011;57617;51.988;5.854;2022-09-09T09:56:17;11.23;;;2.60;;
70228;SDS011;57617;51.988;5.854;2022-09-09T09:58:53;10.40;;;2.65;;
70228;SDS011;57617;51.988;5.854;2022-09-09T10:04:00;10.15;;;2.70;;
70228;SDS011;57617;51.988;5.854;2022-09-09T10:06:34;10.98;;;2.45;;
70228;SDS011;57617;51.988;5.854;2022-09-09T10:09:03;10.45;;;2.95;;
70228;SDS011;57617;51.988;5.854;2022-09-09T10:14:15;10.85;;;2.53;;
70228;SDS011;57617;51.988;5.854;2022-09-09T10:16:50;10.23;;;2.83;;
70228;SDS011;57617;51.988;5.854;2022-09-09T10:19:30;11.10;;;2.20;;
70228;SDS011;57617;51.988;5.854;2022-09-09T10:28:06;11.20;;;2.30;;
70228;SDS011;57617;51.988;5.854;2022-09-09T10:33:37;8.07;;;2.00;;
70228;SDS011;57617;51.988;5.854;2022-09-09T10:36:23;11.50;;;2.38;;
70228;SDS011;57617;51.988;5.854;2022-09-09T10:42:05;8.60;;;2.33;;
70228;SDS011;57617;51.988;5.854;2022-09-09T10:55:06;9.18;;;2.30;;
70228;SDS011;57617;51.988;5.854;2022-09-09T10:57:53;6.07;;;2.17;;
70228;SDS011;57617;51.988;5.854;2022-09-09T11:00:27;7.45;;;2.33;;
70228;SDS011;57617;51.988;5.854;2022-09-09T11:02:56;8.45;;;2.42;;
70228;SDS011;57617;51.988;5.854;2022-09-09T11:05:46;10.13;;;2.50;;
70228;SDS011;57617;51.988;5.854;2022-09-09T11:08:19;8.40;;;2.50;;
70228;SDS011;57617;51.988;5.854;2022-09-09T11:13:19;8.82;;;3.15;;
70228;SDS011;57617;51.988;5.854;2022-09-09T11:15:52;12.43;;;2.95;;
70228;SDS011;57617;51.988;5.854;2022-09-09T11:18:23;7.00;;;2.33;;
70228;SDS011;57617;51.988;5.854;2022-09-09T11:20:50;10.98;;;3.03;;
70228;SDS011;57617;51.988;5.854;2022-09-09T11:23:22;12.23;;;3.38;;
70228;SDS011;57617;51.988;5.854;2022-09-09T11:25:54;10.25;;;3.55;;
70228;SDS011;57617;51.988;5.854;2022-09-09T11:31:38;9.57;;;3.83;;
70228;SDS011;57617;51.988;5.854;2022-09-09T11:34:18;10.55;;;3.85;;
70228;SDS011;57617;51.988;5.854;2022-09-09T11:42:23;11.65;;;3.47;;
70228;SDS011;57617;51.988;5.854;2022-09-09T11:44:50;11.30;;;3.10;;
70228;SDS011;57617;51.988;5.854;2022-09-09T11:47:20;8.13;;;3.33;;
70228;SDS011;57617;51.988;5.854;2022-09-09T11:49:51;8.27;;;2.80;;
70228;SDS011;57617;51.988;5.854;2022-09-09T11:52:22;8.32;;;2.65;;
70228;SDS011;57617;51.988;5.854;2022-09-09T11:54:48;7.85;;;2.72;;
70228;SDS011;57617;51.988;5.854;2022-09-09T11:57:25;5.90;;;2.72;;
70228;SDS011;57617;51.988;5.854;2022-09-09T11:59:59;6.68;;;2.65;;
70228;SDS011;57617;51.988;5.854;2022-09-09T12:02:26;10.10;;;3.20;;
70228;SDS011;57617;51.988;5.854;2022-09-09T12:07:41;10.48;;;2.92;;
70228;SDS011;57617;51.988;5.854;2022-09-09T12:10:29;8.20;;;2.47;;
70228;SDS011;57617;51.988;5.854;2022-09-09T12:15:46;6.68;;;2.17;;
70228;SDS011;57617;51.988;5.854;2022-09-09T12:18:24;13.70;;;2.78;;
70228;SDS011;57617;51.988;5.854;2022-09-09T12:21:21;8.55;;;2.40;;
70228;SDS011;57617;51.988;5.854;2022-09-09T12:24:09;6.53;;;2.45;;
70228;SDS011;57617;51.988;5.854;2022-09-09T12:29:04;7.45;;;2.55;;
70228;SDS011;57617;51.988;5.854;2022-09-09T12:34:34;5.93;;;2.70;;
70228;SDS011;57617;51.988;5.854;2022-09-09T12:37:49;6.47;;;2.60;;
70228;SDS011;57617;51.988;5.854;2022-09-09T12:39:57;6.32;;;2.67;;
70228;SDS011;57617;51.988;5.854;2022-09-09T12:42:24;6.35;;;2.50;;
70228;SDS011;57617;51.988;5.854;2022-09-09T12:45:00;8.77;;;2.78;;
70228;SDS011;57617;51.988;5.854;2022-09-09T12:50:22;10.32;;;2.60;;
70228;SDS011;57617;51.988;5.854;2022-09-09T12:52:56;8.32;;;2.75;;
70228;SDS011;57617;51.988;5.854;2022-09-09T12:55:27;9.18;;;2.83;;
70228;SDS011;57617;51.988;5.854;2022-09-09T12:57:55;4.78;;;2.58;;
70228;SDS011;57617;51.988;5.854;2022-09-09T13:00:23;3.42;;;2.40;;
70228;SDS011;57617;51.988;5.854;2022-09-09T13:02:50;6.38;;;2.70;;
70228;SDS011;57617;51.988;5.854;2022-09-09T13:07:50;8.18;;;2.90;;
70228;SDS011;57617;51.988;5.854;2022-09-09T13:10:21;6.80;;;2.90;;
70228;SDS011;57617;51.988;5.854;2022-09-09T13:12:52;6.60;;;2.97;;
70228;SDS011;57617;51.988;5.854;2022-09-09T13:15:22;6.72;;;3.10;;
70228;SDS011;57617;51.988;5.854;2022-09-09T13:17:52;7.70;;;3.25;;
70228;SDS011;57617;51.988;5.854;2022-09-09T13:20:20;12.10;;;3.30;;
70228;SDS011;57617;51.988;5.854;2022-09-09T13:22:47;4.63;;;2.70;;
70228;SDS011;57617;51.988;5.854;2022-09-09T13:25:18;5.50;;;2.58;;
70228;SDS011;57617;51.988;5.854;2022-09-09T13:28:02;6.80;;;3.15;;
70228;SDS011;57617;51.988;5.854;2022-09-09T13:30:30;5.40;;;3.00;;
70228;SDS011;57617;51.988;5.854;2022-09-09T13:33:31;6.00;;;3.20;;
70228;SDS011;57617;51.988;5.854;2022-09-09T13:35:53;6.95;;;3.20;;
70228;SDS011;57617;51.988;5.854;2022-09-09T13:38:20;8.45;;;2.88;;
70228;SDS011;57617;51.988;5.854;2022-09-09T13:41:19;6.40;;;3.10;;
70228;SDS011;57617;51.988;5.854;2022-09-09T13:43:46;5.70;;;2.90;;
70228;SDS011;57617;51.988;5.854;2022-09-09T13:51:43;4.78;;;2.90;;
70228;SDS011;57617;51.988;5.854;2022-09-09T13:54:12;4.50;;;2.92;;
70228;SDS011;57617;51.988;5.854;2022-09-09T13:56:39;8.27;;;2.97;;
70228;SDS011;57617;51.988;5.854;2022-09-09T13:59:09;11.07;;;3.10;;
70228;SDS011;57617;51.988;5.854;2022-09-09T14:01:36;7.30;;;2.90;;
70228;SDS011;57617;51.988;5.854;2022-09-09T14:04:02;8.80;;;3.00;;
70228;SDS011;57617;51.988;5.854;2022-09-09T14:06:28;11.07;;;3.17;;
70228;SDS011;57617;51.988;5.854;2022-09-09T14:08:54;8.10;;;2.58;;
70228;SDS011;57617;51.988;5.854;2022-09-09T14:11:19;6.70;;;2.50;;
70228;SDS011;57617;51.988;5.854;2022-09-09T14:13:46;6.07;;;2.05;;
70228;SDS011;57617;51.988;5.854;2022-09-09T14:16:12;5.88;;;2.15;;
70228;SDS011;57617;51.988;5.854;2022-09-09T14:18:37;4.47;;;1.70;;
70228;SDS011;57617;51.988;5.854;2022-09-09T14:21:03;4.05;;;1.95;;
70228;SDS011;57617;51.988;5.854;2022-09-09T14:23:29;5.95;;;2.10;;
70228;SDS011;57617;51.988;5.854;2022-09-09T14:25:54;4.80;;;2.05;;
70228;SDS011;57617;51.988;5.854;2022-09-09T14:28:20;8.32;;;2.33;;
70228;SDS011;57617;51.988;5.854;2022-09-09T14:30:45;3.38;;;1.90;;
70228;SDS011;57617;51.988;5.854;2022-09-09T14:33:12;6.32;;;2.10;;
70228;SDS011;57617;51.988;5.854;2022-09-09T14:35:39;6.03;;;2.33;;
70228;SDS011;57617;51.988;5.854;2022-09-09T14:38:05;4.45;;;2.03;;
70228;SDS011;57617;51.988;5.854;2022-09-09T14:40:31;6.60;;;2.10;;
70228;SDS011;57617;51.988;5.854;2022-09-09T14:42:58;5.40;;;2.30;;
70228;SDS011;57617;51.988;5.854;2022-09-09T14:45:24;5.50;;;2.40;;
70228;SDS011;57617;51.988;5.854;2022-09-09T14:47:50;8.10;;;2.03;;
70228;SDS011;57617;51.988;5.854;2022-09-09T14:50:16;4.57;;;2.13;;
70228;SDS011;57617;51.988;5.854;2022-09-09T14:52:41;6.97;;;2.25;;
70228;SDS011;57617;51.988;5.854;2022-09-09T14:55:07;4.00;;;2.22;;
70228;SDS011;57617;51.988;5.854;2022-09-09T14:57:32;7.20;;;2.60;;
70228;SDS011;57617;51.988;5.854;2022-09-09T14:59:59;7.38;;;2.60;;
70228;SDS011;57617;51.988;5.854;2022-09-09T15:02:25;7.55;;;2.33;;
70228;SDS011;57617;51.988;5.854;2022-09-09T15:04:50;9.70;;;2.20;;
70228;SDS011;57617;51.988;5.854;2022-09-09T15:07:18;5.88;;;2.30;;
70228;SDS011;57617;51.988;5.854;2022-09-09T15:09:44;5.38;;;2.38;;
70228;SDS011;57617;51.988;5.854;2022-09-09T15:12:10;5.97;;;2.50;;
70228;SDS011;57617;51.988;5.854;2022-09-09T15:14:35;4.90;;;2.35;;
70228;SDS011;57617;51.988;5.854;2022-09-09T15:17:00;6.60;;;2.70;;
70228;SDS011;57617;51.988;5.854;2022-09-09T15:19:26;8.23;;;3.17;;
70228;SDS011;57617;51.988;5.854;2022-09-09T15:21:51;7.45;;;3.00;;
70228;SDS011;57617;51.988;5.854;2022-09-09T15:24:17;8.63;;;3.10;;
70228;SDS011;57617;51.988;5.854;2022-09-09T15:26:42;5.43;;;3.00;;
70228;SDS011;57617;51.988;5.854;2022-09-09T15:29:07;9.50;;;3.50;;
70228;SDS011;57617;51.988;5.854;2022-09-09T15:31:33;6.85;;;3.10;;
70228;SDS011;57617;51.988;5.854;2022-09-09T15:34:00;10.43;;;3.50;;
70228;SDS011;57617;51.988;5.854;2022-09-09T15:36:28;14.02;;;4.05;;
70228;SDS011;57617;51.988;5.854;2022-09-09T15:38:57;14.82;;;4.80;;
70228;SDS011;57617;51.988;5.854;2022-09-09T15:41:23;15.50;;;4.70;;
70228;SDS011;57617;51.988;5.854;2022-09-09T15:43:49;12.85;;;4.50;;
70228;SDS011;57617;51.988;5.854;2022-09-09T15:48:52;11.68;;;5.05;;
70228;SDS011;57617;51.988;5.854;2022-09-09T15:51:19;12.70;;;5.55;;
70228;SDS011;57617;51.988;5.854;2022-09-09T15:53:45;25.00;;;7.30;;
70228;SDS011;57617;51.988;5.854;2022-09-09T15:56:10;30.10;;;8.50;;
70228;SDS011;57617;51.988;5.854;2022-09-09T15:58:36;39.85;;;8.20;;
70228;SDS011;57617;51.988;5.854;2022-09-09T16:01:04;30.88;;;9.20;;
70228;SDS011;57617;51.988;5.854;2022-09-09T16:03:38;16.45;;;3.78;;
70228;SDS011;57617;51.988;5.854;2022-09-09T16:06:11;16.00;;;3.22;;
70228;SDS011;57617;51.988;5.854;2022-09-09T16:08:38;9.57;;;3.40;;
70228;SDS011;57617;51.988;5.854;2022-09-09T16:11:14;9.77;;;3.65;;
70228;SDS011;57617;51.988;5.854;2022-09-09T16:13:45;5.82;;;3.50;;
70228;SDS011;57617;51.988;5.854;2022-09-09T16:16:13;8.70;;;4.57;;
70228;SDS011;57617;51.988;5.854;2022-09-09T16:18:45;9.18;;;5.20;;
70228;SDS011;57617;51.988;5.854;2022-09-09T16:21:15;12.63;;;5.38;;
70228;SDS011;57617;51.988;5.854;2022-09-09T16:23:44;11.88;;;5.57;;
70228;SDS011;57617;51.988;5.854;2022-09-09T16:26:14;14.48;;;6.10;;
70228;SDS011;57617;51.988;5.854;2022-09-09T16:28:40;17.60;;;6.65;;
70228;SDS011;57617;51.988;5.854;2022-09-09T16:31:07;10.55;;;6.25;;
70228;SDS011;57617;51.988;5.854;2022-09-09T16:33:34;11.98;;;6.70;;
70228;SDS011;57617;51.988;5.854;2022-09-09T16:36:06;12.35;;;6.25;;
70228;SDS011;57617;51.988;5.854;2022-09-09T16:38:33;19.35;;;7.32;;
70228;SDS011;57617;51.988;5.854;2022-09-09T16:40:59;14.60;;;7.55;;
70228;SDS011;57617;51.988;5.854;2022-09-09T16:43:24;12.88;;;7.28;;
70228;SDS011;57617;51.988;5.854;2022-09-09T16:45:49;12.23;;;7.00;;
70228;SDS011;57617;51.988;5.854;2022-09-09T16:48:15;16.17;;;7.40;;
70228;SDS011;57617;51.988;5.854;2022-09-09T16:50:40;13.18;;;6.97;;
70228;SDS011;57617;51.988;5.854;2022-09-09T16:53:05;11.45;;;7.13;;
70228;SDS011;57617;51.988;5.854;2022-09-09T16:55:33;11.63;;;6.45;;